ΕΜΥ, Εθνική Μετεωρολογική Υπηρεσία - Δελτία Καιρού, Προγνώσεις

ΑΕΡΟΝΑΥΤΙΛΙΑ

GREEK AIRPORTS CODES

LGTT 291900Z 00000KT 9999 FEW030 22/14 Q1014 RMK FEW080=

EUROPEAN AIRPORTS CODES

LFPO 291930Z 18002KT 9999 BKN046 17/15 Q1018 NOSIG=